EPWR/WRO METAR and TAF weather

Enter ICAO airport designator
Station Type Date Time Source
EPWR METAR 2018/12/10 20:30 UTC NOAA

EPWR 102030Z 27011KT 9999 FEW017 BKN020 02/M00 Q1010


Station Type Date Time Source
EPWR Decoded METAR 2018/12/10 20:30 UTC NOAA

Wroclaw Ii, Poland (EPWR) 51-06N 016-53E 121M
Dec 10, 2018 - 03:30 PM EST / 2018.12.10 2030 UTC
Wind: from the W (270 degrees) at 13 MPH (11 KT):0
Visibility: greater than 7 mile(s):0
Sky conditions: mostly cloudy
Temperature: 35 F (2 C)
Windchill: 26 F (-3 C):1
Dew Point: 32 F (0 C)
Relative Humidity: 86%
Pressure (altimeter): 29.83 in. Hg (1010 hPa)
ob: EPWR 102030Z 27011KT 9999 FEW017 BKN020 02/M00 Q1010
cycle: 20

Station Type Date Time Source
EPWR TAF 2018/12/10 21:37 UTC NOAA

TAF EPWR 102030Z 1021/1121 24015KT 9999 BKN030
TEMPO 1021/1121 4000 SHRA BKN009 BKN015CB PROB30 1100/1108 1500 SHSNRA BKN010CB


Example: see airport list